createdAt,value
2023-03-30T00:00:49.376Z,68.23
2023-03-30T00:03:29.941Z,68.03
2023-03-30T00:06:14.782Z,67.82
2023-03-30T00:08:57.447Z,67.66
2023-03-30T00:11:35.618Z,67.50
2023-03-30T00:14:13.298Z,67.42
2023-03-30T00:16:50.616Z,67.42
2023-03-30T00:19:28.221Z,67.45
2023-03-30T00:22:05.533Z,67.28
2023-03-30T00:24:43.034Z,67.65
2023-03-30T00:27:20.465Z,67.77
2023-03-30T00:29:57.929Z,67.46
2023-03-30T00:32:35.869Z,67.44
2023-03-30T00:35:16.310Z,67.22
2023-03-30T00:37:54.616Z,67.03
2023-03-30T00:40:34.216Z,67.04
2023-03-30T00:43:16.498Z,66.86
2023-03-30T00:45:54.216Z,67.13
2023-03-30T00:48:36.436Z,67.48
2023-03-30T00:51:15.988Z,67.45
2023-03-30T00:54:01.789Z,67.49
2023-03-30T00:56:39.219Z,67.94
2023-03-30T00:59:17.314Z,68.27
2023-03-30T01:01:55.400Z,68.28
2023-03-30T01:04:37.759Z,68.45
2023-03-30T01:07:15.774Z,68.68
2023-03-30T01:09:53.981Z,68.58
2023-03-30T01:12:31.634Z,68.71
2023-03-30T01:15:11.917Z,68.70
2023-03-30T01:18:14.819Z,68.54
2023-03-30T01:22:13.003Z,68.80
2023-03-30T01:26:16.497Z,68.80
2023-03-30T01:29:01.001Z,68.72
2023-03-30T01:32:18.956Z,68.98
2023-03-30T01:35:33.472Z,68.84
2023-03-30T01:39:20.769Z,68.79
2023-03-30T01:42:12.106Z,68.47
2023-03-30T01:45:01.683Z,68.63
2023-03-30T01:47:48.591Z,68.57
2023-03-30T01:50:36.938Z,68.67
2023-03-30T01:53:25.160Z,68.69
2023-03-30T01:56:15.007Z,68.72
2023-03-30T01:58:57.783Z,68.45
2023-03-30T02:01:39.416Z,68.51
2023-03-30T02:04:18.217Z,68.81
2023-03-30T02:07:04.442Z,69.06
2023-03-30T02:09:43.676Z,69.26
2023-03-30T02:12:23.566Z,69.44
2023-03-30T02:15:05.988Z,69.76
2023-03-30T02:17:46.078Z,69.85
2023-03-30T02:20:23.346Z,70.18
2023-03-30T02:23:01.535Z,70.31
2023-03-30T02:25:40.641Z,70.43
2023-03-30T02:28:18.530Z,70.52
2023-03-30T02:30:55.903Z,70.59
2023-03-30T02:33:56.918Z,70.75
2023-03-30T02:37:16.059Z,70.69
2023-03-30T02:40:17.298Z,70.72
2023-03-30T02:43:16.720Z,70.82
2023-03-30T02:46:09.697Z,70.95
2023-03-30T02:49:04.607Z,71.10
2023-03-30T02:51:48.333Z,70.93
2023-03-30T02:54:48.860Z,70.92
2023-03-30T02:57:43.951Z,70.98
2023-03-30T03:01:19.204Z,71.06
2023-03-30T03:04:10.173Z,71.30
2023-03-30T03:06:57.734Z,71.57
2023-03-30T03:09:34.260Z,71.75
2023-03-30T03:12:11.721Z,71.78
2023-03-30T03:14:47.982Z,71.78
2023-03-30T03:17:24.864Z,71.90
2023-03-30T03:20:01.395Z,71.98
2023-03-30T03:22:37.719Z,72.06
2023-03-30T03:25:15.519Z,72.12
2023-03-30T03:28:09.566Z,72.26
2023-03-30T03:30:51.233Z,72.39
2023-03-30T03:33:32.448Z,72.60
2023-03-30T03:36:16.493Z,72.69
2023-03-30T03:38:57.675Z,72.73
2023-03-30T03:41:34.593Z,72.64
2023-03-30T03:44:10.914Z,72.70
2023-03-30T03:46:47.339Z,72.76
2023-03-30T03:49:25.945Z,72.87
2023-03-30T03:52:02.249Z,72.94
2023-03-30T03:54:38.934Z,73.09
2023-03-30T03:57:16.101Z,73.23
2023-03-30T03:59:53.302Z,73.41
2023-03-30T04:02:30.100Z,73.39
2023-03-30T04:05:07.512Z,73.47
2023-03-30T04:07:46.553Z,73.35
2023-03-30T04:10:23.638Z,73.18
2023-03-30T04:13:05.800Z,72.97
2023-03-30T04:15:57.812Z,72.83
2023-03-30T04:18:48.185Z,72.63
2023-03-30T04:21:47.147Z,72.55
2023-03-30T04:24:44.741Z,72.70
2023-03-30T04:27:42.882Z,72.91
2023-03-30T04:31:13.030Z,72.59
2023-03-30T04:34:09.608Z,72.48
2023-03-30T04:37:04.504Z,72.84
2023-03-30T04:39:54.264Z,73.02
2023-03-30T04:42:50.216Z,73.21
2023-03-30T04:46:11.011Z,73.02
2023-03-30T04:49:06.814Z,72.46
2023-03-30T04:52:01.852Z,72.16
2023-03-30T04:54:44.908Z,71.93
2023-03-30T04:57:53.270Z,71.58
2023-03-30T05:00:48.585Z,71.26
2023-03-30T05:04:11.188Z,71.00
2023-03-30T05:07:07.259Z,70.64
2023-03-30T05:10:34.246Z,70.30
2023-03-30T05:13:25.909Z,69.71
2023-03-30T05:16:02.561Z,69.09
2023-03-30T05:18:56.907Z,68.07
2023-03-30T05:22:01.249Z,66.90
2023-03-30T05:24:53.098Z,65.67
2023-03-30T05:28:21.920Z,64.73
2023-03-30T05:31:11.030Z,63.59
2023-03-30T05:34:06.759Z,62.72
2023-03-30T05:37:29.180Z,61.91
2023-03-30T05:40:47.222Z,61.53
2023-03-30T05:43:37.771Z,61.02
2023-03-30T05:46:31.960Z,60.82
2023-03-30T05:49:51.378Z,60.82
2023-03-30T05:52:34.498Z,60.52
2023-03-30T05:55:15.870Z,60.38
2023-03-30T05:58:06.735Z,60.41
2023-03-30T06:01:05.915Z,60.38
2023-03-30T06:03:44.870Z,60.22
2023-03-30T06:06:22.378Z,60.10
2023-03-30T06:08:59.888Z,60.07
2023-03-30T06:11:37.883Z,59.85
2023-03-30T06:14:34.332Z,59.90
2023-03-30T06:17:34.492Z,59.91
2023-03-30T06:20:14.334Z,59.93
2023-03-30T06:22:53.701Z,59.55
2023-03-30T06:25:34.041Z,59.61
2023-03-30T06:28:10.637Z,59.52
2023-03-30T06:30:48.927Z,59.15
2023-03-30T06:33:26.053Z,58.89
2023-03-30T06:36:11.134Z,58.93
2023-03-30T06:38:48.868Z,59.13
2023-03-30T06:41:25.935Z,58.78
2023-03-30T06:44:02.192Z,58.49
2023-03-30T06:46:43.733Z,58.43
2023-03-30T06:49:20.743Z,58.19
2023-03-30T06:52:42.080Z,58.25
2023-03-30T06:55:18.690Z,58.08
2023-03-30T06:57:55.823Z,57.69
2023-03-30T07:00:32.375Z,57.25
2023-03-30T07:03:38.213Z,56.99
2023-03-30T07:06:26.677Z,56.67
2023-03-30T07:09:05.717Z,56.04
2023-03-30T07:11:42.216Z,55.72
2023-03-30T07:14:19.056Z,55.42
2023-03-30T07:16:55.749Z,55.26
2023-03-30T07:19:33.090Z,54.69
2023-03-30T07:22:09.747Z,54.62
2023-03-30T07:24:46.370Z,54.43
2023-03-30T07:27:25.459Z,54.38
2023-03-30T07:30:13.873Z,54.04
2023-03-30T07:32:58.891Z,54.03
2023-03-30T07:35:35.384Z,53.22
2023-03-30T07:38:15.034Z,52.40
2023-03-30T07:40:55.831Z,51.38
2023-03-30T07:43:32.988Z,50.19
2023-03-30T07:46:13.087Z,49.31
2023-03-30T07:48:52.897Z,48.08
2023-03-30T07:51:29.674Z,46.62
2023-03-30T07:54:11.957Z,46.02
2023-03-30T07:57:03.048Z,45.64
2023-03-30T07:59:40.565Z,44.48
2023-03-30T08:02:35.627Z,43.93
2023-03-30T08:05:13.332Z,42.35
2023-03-30T08:08:05.840Z,42.52
2023-03-30T08:10:43.310Z,42.20
2023-03-30T08:13:21.820Z,41.10
2023-03-30T08:15:58.916Z,41.33
2023-03-30T08:18:37.253Z,41.34
2023-03-30T08:21:13.722Z,40.13
2023-03-30T08:23:50.085Z,39.91
2023-03-30T08:26:26.528Z,39.57
2023-03-30T08:29:02.881Z,39.43
2023-03-30T08:31:39.412Z,39.45
2023-03-30T08:34:16.063Z,40.03
2023-03-30T08:36:54.980Z,39.97
2023-03-30T08:39:33.387Z,40.48
2023-03-30T08:43:05.635Z,41.15
2023-03-30T08:45:45.735Z,41.67
2023-03-30T08:48:28.243Z,42.05
2023-03-30T08:51:16.633Z,42.65
2023-03-30T08:53:58.417Z,42.70
2023-03-30T08:56:35.507Z,42.75
2023-03-30T08:59:28.601Z,43.17
2023-03-30T09:02:18.770Z,43.46
2023-03-30T09:05:06.548Z,43.47
2023-03-30T09:07:54.012Z,43.35
2023-03-30T09:10:37.622Z,43.74
2023-03-30T09:13:20.216Z,43.36
2023-03-30T09:16:04.413Z,42.87
2023-03-30T09:18:44.691Z,43.16
2023-03-30T09:21:25.832Z,43.18
2023-03-30T09:24:12.791Z,43.26
2023-03-30T09:26:59.958Z,43.58
2023-03-30T09:29:43.887Z,43.71
2023-03-30T09:32:34.927Z,43.62
2023-03-30T09:35:21.768Z,43.47
2023-03-30T09:37:58.234Z,43.53
2023-03-30T09:41:10.157Z,43.60
2023-03-30T09:43:49.133Z,43.38
2023-03-30T09:46:25.596Z,43.30
2023-03-30T09:49:18.429Z,43.12
2023-03-30T09:52:09.300Z,42.79
2023-03-30T09:54:46.376Z,42.79
2023-03-30T09:57:37.105Z,42.65
2023-03-30T10:00:32.850Z,42.46
2023-03-30T10:03:19.919Z,42.07
2023-03-30T10:06:13.219Z,42.04
2023-03-30T10:08:56.719Z,41.98
2023-03-30T10:11:44.497Z,42.06
2023-03-30T10:14:36.958Z,42.00
2023-03-30T10:17:25.081Z,41.86
2023-03-30T10:20:28.490Z,41.96
2023-03-30T10:23:14.842Z,41.69
2023-03-30T10:25:52.487Z,41.65
2023-03-30T10:28:36.555Z,41.80
2023-03-30T10:31:21.235Z,41.41
2023-03-30T10:34:02.444Z,41.56
2023-03-30T10:36:43.474Z,41.66
2023-03-30T10:39:27.091Z,41.51
2023-03-30T10:42:08.206Z,41.15
2023-03-30T10:44:53.114Z,41.08
2023-03-30T10:47:54.256Z,41.11
2023-03-30T10:50:46.366Z,41.09
2023-03-30T10:53:46.554Z,40.59
2023-03-30T10:56:45.073Z,40.59
2023-03-30T10:59:57.401Z,40.89
2023-03-30T11:03:01.876Z,40.43
2023-03-30T11:05:44.214Z,40.58
2023-03-30T11:08:27.238Z,40.97
2023-03-30T11:11:06.800Z,41.19
2023-03-30T11:13:49.588Z,41.59
2023-03-30T11:16:52.049Z,41.78
2023-03-30T11:19:39.162Z,41.20
2023-03-30T11:22:34.250Z,40.42
2023-03-30T11:25:30.529Z,41.01
2023-03-30T11:28:23.977Z,41.20
2023-03-30T11:31:13.733Z,40.69
2023-03-30T11:34:03.692Z,40.42
2023-03-30T11:36:49.871Z,40.15
2023-03-30T11:39:34.887Z,39.89
2023-03-30T11:42:26.950Z,39.97
2023-03-30T11:45:06.188Z,39.92
2023-03-30T11:48:15.847Z,39.45
2023-03-30T11:51:22.456Z,39.59
2023-03-30T11:54:20.072Z,39.85
2023-03-30T11:57:08.283Z,40.22
2023-03-30T12:00:09.821Z,40.36
2023-03-30T12:03:03.160Z,40.52
2023-03-30T12:05:47.208Z,40.78
2023-03-30T12:08:57.447Z,40.77
2023-03-30T12:11:46.992Z,41.20
2023-03-30T12:14:50.832Z,41.51
2023-03-30T12:17:53.875Z,41.92
2023-03-30T12:20:49.321Z,42.43
2023-03-30T12:23:43.106Z,43.06
2023-03-30T12:26:32.456Z,43.22
2023-03-30T12:29:44.511Z,43.76
2023-03-30T12:32:28.451Z,44.32
2023-03-30T12:35:42.646Z,44.47
2023-03-30T12:38:25.700Z,44.65
2023-03-30T12:41:16.552Z,44.97
2023-03-30T12:44:35.217Z,45.14
2023-03-30T12:47:43.573Z,44.79
2023-03-30T12:50:53.608Z,44.94
2023-03-30T12:54:10.942Z,44.96
2023-03-30T12:57:00.878Z,45.10
2023-03-30T13:03:06.239Z,45.88
2023-03-30T13:05:51.384Z,45.66
2023-03-30T13:08:36.917Z,45.77
2023-03-30T13:11:22.094Z,46.02
2023-03-30T13:14:26.391Z,46.24
2023-03-30T13:17:20.510Z,46.59
2023-03-30T13:20:29.238Z,46.73
2023-03-30T13:23:33.124Z,46.84
2023-03-30T13:26:35.102Z,47.09
2023-03-30T13:29:17.375Z,47.16
2023-03-30T13:32:22.895Z,47.45
2023-03-30T13:35:36.334Z,47.51
2023-03-30T13:39:01.803Z,47.75
2023-03-30T13:41:57.601Z,47.91
2023-03-30T13:44:59.759Z,48.02
2023-03-30T13:47:57.572Z,47.98
2023-03-30T13:50:36.469Z,47.80
2023-03-30T13:53:20.241Z,47.70
2023-03-30T13:55:56.926Z,47.83
2023-03-30T13:58:36.891Z,47.56
2023-03-30T14:01:19.531Z,47.56
2023-03-30T14:04:00.945Z,47.67
2023-03-30T14:06:46.042Z,47.76
2023-03-30T14:09:28.897Z,47.74
2023-03-30T14:12:07.878Z,47.88
2023-03-30T14:14:48.435Z,47.96
2023-03-30T14:17:27.449Z,48.01
2023-03-30T14:20:22.178Z,48.23
2023-03-30T14:23:00.880Z,48.51
2023-03-30T14:25:42.067Z,48.76
2023-03-30T14:28:22.740Z,48.94
2023-03-30T14:31:05.010Z,49.12
2023-03-30T14:33:44.946Z,49.31
2023-03-30T14:36:24.704Z,49.39
2023-03-30T14:39:02.689Z,49.75
2023-03-30T14:41:39.676Z,49.85
2023-03-30T14:44:21.389Z,50.03
2023-03-30T14:46:58.555Z,50.29
2023-03-30T14:49:36.800Z,50.36
2023-03-30T14:52:21.625Z,50.37
2023-03-30T14:55:07.500Z,50.53
2023-03-30T14:57:47.989Z,50.63
2023-03-30T15:00:26.777Z,50.83
2023-03-30T15:03:05.776Z,51.07
2023-03-30T15:05:44.104Z,51.15
2023-03-30T15:08:28.998Z,51.31
2023-03-30T15:11:10.892Z,51.42
2023-03-30T15:13:52.554Z,51.52
2023-03-30T15:16:36.110Z,51.65
2023-03-30T15:19:22.295Z,51.71
2023-03-30T15:22:04.262Z,51.85
2023-03-30T15:24:41.252Z,52.08
2023-03-30T15:27:20.853Z,51.82
2023-03-30T15:30:01.682Z,52.07
2023-03-30T15:32:44.501Z,52.34
2023-03-30T15:35:27.981Z,52.54
2023-03-30T15:38:14.528Z,52.64
2023-03-30T15:40:52.116Z,52.71
2023-03-30T15:43:33.790Z,52.79
2023-03-30T15:46:13.900Z,52.99
2023-03-30T15:48:53.873Z,53.14
2023-03-30T15:51:38.504Z,53.46
2023-03-30T15:54:22.531Z,53.75
2023-03-30T15:57:15.143Z,54.52
2023-03-30T15:59:57.113Z,55.21
2023-03-30T16:02:50.022Z,56.41
2023-03-30T16:05:31.291Z,56.78
2023-03-30T16:08:09.703Z,57.33
2023-03-30T16:10:45.989Z,58.32
2023-03-30T16:13:22.836Z,58.56
2023-03-30T16:16:00.559Z,58.96
2023-03-30T16:18:36.939Z,59.19
2023-03-30T16:21:13.508Z,59.60
2023-03-30T16:23:49.977Z,60.32
2023-03-30T16:26:26.340Z,60.49
2023-03-30T16:29:02.736Z,60.79
2023-03-30T16:31:39.240Z,61.07
2023-03-30T16:34:15.543Z,61.43
2023-03-30T16:36:52.884Z,61.25
2023-03-30T16:39:32.296Z,61.62
2023-03-30T16:42:08.798Z,62.02
2023-03-30T16:44:45.202Z,61.96
2023-03-30T16:47:22.054Z,62.40
2023-03-30T16:49:58.549Z,62.43
2023-03-30T16:52:34.813Z,62.55
2023-03-30T16:55:12.371Z,62.80
2023-03-30T16:57:48.628Z,63.10
2023-03-30T17:00:31.031Z,63.21
2023-03-30T17:03:07.547Z,63.47
2023-03-30T17:05:48.318Z,63.36
2023-03-30T17:08:28.874Z,63.08
2023-03-30T17:11:07.902Z,62.88
2023-03-30T17:13:47.130Z,62.87
2023-03-30T17:16:27.453Z,62.90
2023-03-30T17:19:04.057Z,63.00
2023-03-30T17:21:42.988Z,63.04
2023-03-30T17:24:20.374Z,63.26
2023-03-30T17:26:57.691Z,63.42
2023-03-30T17:29:34.027Z,63.66
2023-03-30T17:32:16.424Z,63.88
2023-03-30T17:34:52.792Z,64.18
2023-03-30T17:37:29.128Z,64.68
2023-03-30T17:40:15.759Z,65.33
2023-03-30T17:42:52.578Z,66.24
2023-03-30T17:45:33.339Z,66.53
2023-03-30T17:48:15.317Z,67.10
2023-03-30T17:50:53.562Z,67.94
2023-03-30T17:53:29.844Z,68.15
2023-03-30T17:56:07.435Z,68.85
2023-03-30T17:58:43.822Z,68.92
2023-03-30T18:01:20.414Z,69.45
2023-03-30T18:03:57.020Z,69.69
2023-03-30T18:06:34.423Z,69.69
2023-03-30T18:09:17.351Z,70.18
2023-03-30T18:11:53.898Z,70.69
2023-03-30T18:14:30.295Z,70.97
2023-03-30T18:17:07.450Z,71.45
2023-03-30T18:19:45.238Z,72.07
2023-03-30T18:22:21.768Z,72.25
2023-03-30T18:24:58.077Z,72.22
2023-03-30T18:27:36.191Z,72.28
2023-03-30T18:30:33.344Z,72.53
2023-03-30T18:33:10.467Z,72.42
2023-03-30T18:35:49.164Z,73.16
2023-03-30T18:38:26.659Z,72.98
2023-03-30T18:41:03.656Z,73.45
2023-03-30T18:43:40.736Z,73.59
2023-03-30T18:46:17.989Z,73.65
2023-03-30T18:48:54.778Z,73.71
2023-03-30T18:51:31.466Z,73.93
2023-03-30T18:54:10.289Z,73.42
2023-03-30T18:56:47.836Z,73.42
2023-03-30T18:59:26.295Z,73.54
2023-03-30T19:02:02.909Z,73.65
2023-03-30T19:04:39.641Z,73.25
2023-03-30T19:07:17.085Z,73.51
2023-03-30T19:09:54.100Z,73.95
2023-03-30T19:12:31.000Z,73.91
2023-03-30T19:15:09.866Z,73.59
2023-03-30T19:17:46.785Z,74.36
2023-03-30T19:20:29.542Z,74.67
2023-03-30T19:23:06.280Z,74.86
2023-03-30T19:25:44.433Z,74.90
2023-03-30T19:28:22.383Z,75.14
2023-03-30T19:31:04.345Z,75.32
2023-03-30T19:33:42.009Z,75.53
2023-03-30T19:36:19.780Z,75.26
2023-03-30T19:38:56.979Z,75.57
2023-03-30T19:41:33.684Z,75.65
2023-03-30T19:44:10.425Z,75.89
2023-03-30T19:46:47.456Z,75.88
2023-03-30T19:49:24.041Z,75.92
2023-03-30T19:52:00.557Z,75.85
2023-03-30T19:54:37.685Z,76.07
2023-03-30T19:57:14.088Z,76.22
2023-03-30T19:59:51.969Z,76.37
2023-03-30T20:02:28.548Z,76.47
2023-03-30T20:05:05.485Z,76.50
2023-03-30T20:07:42.847Z,76.60
2023-03-30T20:10:23.230Z,76.70
2023-03-30T20:13:00.007Z,76.85
2023-03-30T20:15:36.556Z,77.00
2023-03-30T20:18:14.353Z,77.08
2023-03-30T20:20:50.697Z,77.17
2023-03-30T20:23:27.099Z,77.31
2023-03-30T20:26:05.413Z,77.46
2023-03-30T20:28:44.334Z,77.48
2023-03-30T20:31:21.033Z,77.62
2023-03-30T20:33:58.645Z,77.72
2023-03-30T20:36:35.324Z,77.75
2023-03-30T20:39:14.032Z,77.92
2023-03-30T20:41:54.061Z,78.03
2023-03-30T20:44:35.430Z,78.10
2023-03-30T20:47:11.826Z,78.22
2023-03-30T20:49:48.219Z,78.30
2023-03-30T20:52:24.992Z,78.38
2023-03-30T20:55:01.270Z,78.45
2023-03-30T20:57:37.993Z,78.50
2023-03-30T21:00:18.517Z,78.58
2023-03-30T21:02:54.809Z,78.72
2023-03-30T21:05:31.284Z,78.84
2023-03-30T21:08:08.689Z,78.75
2023-03-30T21:10:47.593Z,78.91
2023-03-30T21:13:24.115Z,79.10
2023-03-30T21:16:05.631Z,79.18
2023-03-30T21:18:42.076Z,78.97
2023-03-30T21:21:18.477Z,79.10
2023-03-30T21:23:54.794Z,79.32
2023-03-30T21:26:31.381Z,79.53
2023-03-30T21:29:08.404Z,79.46
2023-03-30T21:31:45.021Z,79.35
2023-03-30T21:34:22.298Z,79.29
2023-03-30T21:36:58.593Z,78.96
2023-03-30T21:39:35.227Z,79.21
2023-03-30T21:42:11.712Z,78.70
2023-03-30T21:44:48.078Z,78.57
2023-03-30T21:47:24.520Z,78.61
2023-03-30T21:50:00.720Z,78.83
2023-03-30T21:52:37.274Z,78.62
2023-03-30T21:55:14.615Z,78.68
2023-03-30T21:57:51.028Z,78.90
2023-03-30T22:00:27.397Z,79.08
2023-03-30T22:03:06.278Z,78.84
2023-03-30T22:05:46.002Z,79.04
2023-03-30T22:08:23.047Z,79.01
2023-03-30T22:11:05.185Z,78.88
2023-03-30T22:13:41.589Z,79.17
2023-03-30T22:16:22.401Z,79.39
2023-03-30T22:18:59.450Z,79.27
2023-03-30T22:21:35.969Z,79.31
2023-03-30T22:24:17.528Z,79.45
2023-03-30T22:26:54.092Z,79.57
2023-03-30T22:29:30.961Z,79.21
2023-03-30T22:32:10.023Z,79.33
2023-03-30T22:34:46.658Z,79.38
2023-03-30T22:37:23.024Z,79.56
2023-03-30T22:39:59.343Z,79.34
2023-03-30T22:42:36.105Z,79.12
2023-03-30T22:45:16.210Z,79.08
2023-03-30T22:47:53.861Z,79.06
2023-03-30T22:50:31.131Z,79.13
2023-03-30T22:53:07.626Z,78.81
2023-03-30T22:55:43.928Z,78.91
2023-03-30T22:58:20.212Z,78.80
2023-03-30T23:01:02.329Z,78.55
2023-03-30T23:03:39.157Z,78.91
2023-03-30T23:06:19.223Z,78.87
2023-03-30T23:08:57.013Z,78.44
2023-03-30T23:11:35.303Z,78.31
2023-03-30T23:14:11.631Z,78.10
2023-03-30T23:16:48.783Z,78.62
2023-03-30T23:19:29.427Z,78.38
2023-03-30T23:22:05.791Z,78.81
2023-03-30T23:24:42.144Z,79.20
2023-03-30T23:27:18.850Z,79.31
2023-03-30T23:29:55.155Z,79.11
2023-03-30T23:32:31.722Z,78.89
2023-03-30T23:35:10.060Z,79.02
2023-03-30T23:37:46.508Z,79.07
2023-03-30T23:40:23.256Z,78.95
2023-03-30T23:42:59.603Z,78.91
2023-03-30T23:45:36.554Z,78.47
2023-03-30T23:48:13.579Z,78.32
2023-03-30T23:50:51.020Z,78.50
2023-03-30T23:53:27.908Z,78.31
2023-03-30T23:56:06.644Z,78.44
2023-03-30T23:58:43.804Z,78.75
